AirNav   Everest Fuels
 
 1021 users online  

0MI1 Lawler Heliport
Oakland, Michigan, USA

GOING TO OAKLAND?


FAA INFORMATION EFFECTIVE 07 NOVEMBER 2019

Location

FAA Identifier: 0MI1
Lat/Long: 42-44-56.6500N 083-07-13.4700W
42-44.944167N 083-07.224500W
42.7490694,-83.1204083
(estimated)
Elevation: 940 ft. / 287 m (estimated)
From city: 4 miles SW of OAKLAND, MI
Time zone: UTC -5 (UTC -4 during Daylight Saving Time)
Zip code: 48306

Heliport Operations

Heliport use: Private use. Permission required prior to landing
Activation date: 06/2016
Control tower: no
ARTCC: CLEVELAND CENTER
FSS: LANSING FLIGHT SERVICE STATION
Attendance: 
Wind indicator: yes
Segmented circle: no

Heliport Communications

WX AWOS-3 at VLL (13 nm S): 119.475 (248-288-4649)
WX ASOS at PTK (14 nm W): 125.025 (248-886-8551)

Nearby radio navigation aids

VOR radial/distance  VOR name  Freq  Var
SVMr049/29.2SALEM VORTAC114.3003W
FNTr121/30.5FLINT VORTAC116.9006W
YQGr343/32.6WINDSOR VOR/DME113.8006W
DXOr025/34.0DETROIT VOR/DME113.4006W

 
NDB name  Hdg/Dist  Freq  Var  ID
GROSSE ILE009/38.941907WRYS .-. -.-- ...

Heliport Services

Runway Information

Helipad H1

Dimensions: 40 x 24 ft. / 12 x 7 m
Surface: concrete
Runway edge lights: FLD
Traffic pattern: leftleft

Heliport Ownership and Management from official FAA records

Ownership: Privately-owned
Owner: DAVID M. LAWLER
885 E. GUNN
ROCHESTER, MI 48306
Phone (586) 899-4979
Manager: DAVID M. LAWLER
885 E. GUNN
ROCHESTER, MI 48306
Phone (586) 899-4979

Heliport Operational Statistics

Aircraft based on the field: 1
Helicopters: 1
    

Additional Remarks

FOR CD CTC CLEVELAND ARTCC AT 440-774-0490.

Instrument Procedures

There are no published instrument procedures at 0MI1.

Some nearby airports with instrument procedures:

D98 - Romeo State Airport (7 nm NE)
57D - Ray Community Airport (10 nm E)
KVLL - Oakland/Troy Airport (13 nm S)
KPTK - Oakland County International Airport (14 nm W)
KMTC - Selfridge Air National Guard Base (15 nm SE)
 
Loc | Ops | Rwys | IFR | FBO | Links
Com | Nav | Svcs | Stats | Notes
Aerial photo
No photo
 
Airport distance calculator
Flying to Lawler Heliport? Find the distance to fly.

From to 0MI1

Sunrise and sunset
Times for 21-Nov-2019
 Local
(UTC-5)
 Zulu
(UTC)
Morning civil twilight07:0212:02
Sunrise07:3312:33
Sunset17:0422:04
Evening civil twilight17:3522:35

Current date and time
Zulu (UTC)  22-Nov-2019 00:17:55
Local (UTC-5)  21-Nov-2019 19:17:55
 
METAR
KVLL 
13nm S 
212355Z AUTO 22014G22KT 5SM DZ OVC008 10/10 A2969 RMK AO2 T01030100 10105 20061
KPTK 
14nm W 
212353Z 22009KT 3SM -DZ BR OVC008 10/09 A2966 RMK AO2 SLP047 CIG 006V010 P0000 60000 T01000089 10100 20050 55005
KMTC 
16nm SE 
212356Z 20012KT 2SM -DZ BR OVC009 10/10 A2966 RMK AO2A SLP051 P0000 60008 T01000100 10100 20060 56013 $
KD95 
20nm N 
212356Z AUTO 21013G18KT 4SM DZ OVC009 10/08 A2964 RMK AO2 60003 T00990083 10099 20058
KDET 
21nm S 
212353Z 23018G30KT 6SM -RA BR OVC011 11/11 A2969 RMK AO2 PK WND 23030/2353 RAB21 SLP058 P0000 60004 T01110106 10111 20072 56011
TAF
KPTK 
14nm W 
212009Z 2120/2218 20018G27KT 3SM -SHRA BKN010 OVC018 TEMPO 2122/2123 OVC008 FM212300 23020G30KT P6SM OVC008 FM220300 28018G28KT P6SM OVC016 FM220800 30014G24KT P6SM OVC025 FM221400 31012G18KT P6SM BKN030
KMTC 
16nm SE 
212315Z 2123/2223 19012KT 3200 BR OVC008 QNH2964INS TEMPO 2123/2124 20025G35KT 510003 BECMG 2123/2124 19012KT 6000 -SHRA OVC008 540093 QNH2964INS TEMPO 2200/2203 20025G35KT 510003 BECMG 2201/2203 22010G15KT 9999 NSW OVC007 540076 QNH2967INS BECMG 2205/2206 25010G15KT 9999 OVC010 QNH2978INS BECMG 2210/2211 28010G15KT 9999 BKN020 QNH2994INS BECMG 2215/2216 31012G18KT 9999 FEW025 QNH3007INS TX09/2200Z TN02/2212Z
NOTAMs
Click for the latest NOTAMs
NOTAMs are issued by the DoD/FAA and will open in a separate window not controlled by AirNav.

 

 
 

Would you like to see your business listed on this page?

 If your business provides an interesting product or service to pilots, flight crews, aircraft, or users of the Lawler Heliport, you should consider listing it here.  To start the listing process, click on the button below
 
Add a business
 

Other Pages about Lawler Heliport

Update a link
 
Copyright © AirNav, LLC. All rights reserved. Privacy Policy  Contact